TAF KOAK
KOAK 280530Z 2806/2912 VRB03KT P6SM FEW010 FM281900 29007KT P6SM SKC FM290300 VRB03KT P6SM SKC FM291000 VRB03KT P6SM FEW006=
METAR KOAK
WC KOAK
WS KOAK
WV KOAK